createdAt,value
2018-10-11T00:00:29.220Z,76.68
2018-10-11T00:02:58.757Z,76.99
2018-10-11T00:05:29.120Z,77.47
2018-10-11T00:07:58.681Z,77.49
2018-10-11T00:10:28.717Z,77.80
2018-10-11T00:12:58.245Z,77.14
2018-10-11T00:15:27.182Z,76.95
2018-10-11T00:17:57.127Z,76.76
2018-10-11T00:20:27.328Z,75.55
2018-10-11T00:22:56.104Z,76.83
2018-10-11T00:25:26.513Z,77.00
2018-10-11T00:27:55.879Z,77.35
2018-10-11T00:30:27.241Z,78.13
2018-10-11T00:32:57.522Z,78.52
2018-10-11T00:35:27.324Z,78.52
2018-10-11T00:37:57.245Z,78.36
2018-10-11T00:40:27.669Z,78.21
2018-10-11T00:42:57.718Z,78.06
2018-10-11T00:45:27.021Z,77.81
2018-10-11T00:47:56.575Z,78.08
2018-10-11T00:50:28.022Z,77.54
2018-10-11T00:52:58.714Z,78.00
2018-10-11T00:55:28.464Z,77.24
2018-10-11T00:57:56.930Z,76.70
2018-10-11T01:00:26.544Z,77.86
2018-10-11T01:02:56.824Z,79.12
2018-10-11T01:05:27.017Z,77.92
2018-10-11T01:07:56.057Z,77.69
2018-10-11T01:10:25.049Z,77.95
2018-10-11T01:12:54.153Z,77.93
2018-10-11T01:15:23.887Z,77.52
2018-10-11T01:17:53.029Z,77.14
2018-10-11T01:20:21.722Z,77.20
2018-10-11T01:22:51.488Z,76.50
2018-10-11T01:25:20.917Z,76.83
2018-10-11T01:27:50.303Z,76.41
2018-10-11T01:30:19.291Z,77.28
2018-10-11T01:32:48.900Z,77.15
2018-10-11T01:35:17.503Z,77.35
2018-10-11T01:37:47.251Z,78.51
2018-10-11T01:40:16.013Z,78.48
2018-10-11T01:42:44.541Z,77.58
2018-10-11T01:45:13.998Z,78.02
2018-10-11T01:47:43.146Z,77.51
2018-10-11T01:50:12.936Z,77.02
2018-10-11T01:52:44.098Z,76.69
2018-10-11T01:55:15.397Z,77.69
2018-10-11T01:57:45.377Z,78.18
2018-10-11T02:00:17.065Z,77.68
2018-10-11T02:02:46.768Z,77.42
2018-10-11T02:05:16.094Z,77.83
2018-10-11T02:07:45.749Z,78.11
2018-10-11T02:10:15.305Z,75.82
2018-10-11T02:12:44.785Z,76.55
2018-10-11T02:15:13.829Z,76.68
2018-10-11T02:17:43.929Z,77.78
2018-10-11T02:20:14.173Z,76.52
2018-10-11T02:22:45.612Z,75.23
2018-10-11T02:25:15.521Z,75.41
2018-10-11T02:27:46.534Z,77.85
2018-10-11T02:30:15.370Z,77.36
2018-10-11T02:32:45.017Z,79.48
2018-10-11T02:35:15.125Z,79.56
2018-10-11T02:37:44.736Z,79.51
2018-10-11T02:40:14.921Z,79.61
2018-10-11T02:42:44.663Z,79.83
2018-10-11T02:45:14.114Z,79.81
2018-10-11T02:47:43.554Z,78.68
2018-10-11T02:50:12.610Z,76.38
2018-10-11T02:52:42.260Z,77.65
2018-10-11T02:55:20.221Z,78.57
2018-10-11T02:57:59.957Z,78.16
2018-10-11T03:00:29.415Z,78.67
2018-10-11T03:03:02.834Z,79.33
2018-10-11T03:05:33.613Z,77.35
2018-10-11T03:08:02.173Z,76.44
2018-10-11T03:10:31.244Z,79.01
2018-10-11T03:13:01.267Z,78.34
2018-10-11T03:15:31.140Z,79.38
2018-10-11T03:18:00.216Z,81.82
2018-10-11T03:20:29.472Z,82.40
2018-10-11T03:22:58.736Z,81.63
2018-10-11T03:25:29.301Z,83.38
2018-10-11T03:27:59.920Z,83.68
2018-10-11T03:30:30.172Z,84.15
2018-10-11T03:33:00.445Z,83.45
2018-10-11T03:35:30.122Z,82.97
2018-10-11T03:37:59.377Z,83.48
2018-10-11T03:40:30.210Z,82.65
2018-10-11T03:43:00.198Z,82.65
2018-10-11T03:45:31.356Z,82.04
2018-10-11T03:48:01.972Z,82.36
2018-10-11T03:50:31.067Z,81.79
2018-10-11T03:53:00.901Z,81.28
2018-10-11T03:55:30.505Z,79.90
2018-10-11T03:58:00.312Z,79.56
2018-10-11T04:00:30.669Z,80.05
2018-10-11T04:02:59.995Z,80.06
2018-10-11T04:05:29.980Z,79.90
2018-10-11T04:07:59.292Z,78.62
2018-10-11T04:10:28.177Z,78.13
2018-10-11T04:12:57.354Z,79.07
2018-10-11T04:15:26.625Z,81.62
2018-10-11T04:17:55.839Z,83.12
2018-10-11T04:20:26.653Z,83.66
2018-10-11T04:22:57.538Z,83.59
2018-10-11T04:25:28.681Z,82.90
2018-10-11T04:27:57.766Z,83.35
2018-10-11T04:30:27.401Z,83.13
2018-10-11T04:32:56.706Z,83.52
2018-10-11T04:35:26.492Z,83.58
2018-10-11T04:37:55.776Z,83.71
2018-10-11T04:40:25.480Z,84.18
2018-10-11T04:42:55.203Z,84.15
2018-10-11T04:45:23.632Z,83.71
2018-10-11T04:47:54.321Z,83.37
2018-10-11T04:50:24.043Z,82.87
2018-10-11T04:52:53.298Z,82.40
2018-10-11T04:55:22.523Z,81.72
2018-10-11T04:57:52.286Z,81.69
2018-10-11T05:00:21.132Z,83.05
2018-10-11T05:02:50.395Z,83.16
2018-10-11T05:05:20.096Z,83.10
2018-10-11T05:07:49.360Z,82.81
2018-10-11T05:10:20.119Z,82.67
2018-10-11T05:12:50.401Z,83.34
2018-10-11T05:15:21.382Z,83.29
2018-10-11T05:17:54.097Z,83.63
2018-10-11T05:20:23.645Z,80.53
2018-10-11T05:22:52.691Z,80.55
2018-10-11T05:25:23.226Z,81.60
2018-10-11T05:27:53.920Z,81.45
2018-10-11T05:30:23.630Z,81.42
2018-10-11T05:32:53.275Z,80.78
2018-10-11T05:35:23.891Z,81.64
2018-10-11T05:37:53.645Z,81.83
2018-10-11T05:40:24.386Z,82.49
2018-10-11T05:42:54.702Z,82.97
2018-10-11T05:45:25.660Z,82.87
2018-10-11T05:47:54.799Z,83.12
2018-10-11T05:50:24.386Z,83.20
2018-10-11T05:52:54.538Z,82.87
2018-10-11T05:55:24.550Z,82.79
2018-10-11T05:57:54.799Z,82.58
2018-10-11T06:00:25.334Z,82.47
2018-10-11T06:03:02.422Z,82.28
2018-10-11T06:05:31.639Z,82.78
2018-10-11T06:08:02.100Z,83.16
2018-10-11T06:10:32.521Z,82.38
2018-10-11T06:13:02.636Z,82.77
2018-10-11T06:15:32.761Z,82.18
2018-10-11T06:18:02.820Z,81.78
2018-10-11T06:20:32.312Z,82.98
2018-10-11T06:23:02.132Z,83.45
2018-10-11T06:25:31.038Z,83.90
2018-10-11T06:28:00.583Z,83.06
2018-10-11T06:30:31.606Z,83.06
2018-10-11T06:33:01.727Z,83.25
2018-10-11T06:35:31.948Z,83.40
2018-10-11T06:38:03.944Z,83.21
2018-10-11T06:40:34.509Z,82.76
2018-10-11T06:43:03.900Z,82.54
2018-10-11T06:45:34.904Z,82.19
2018-10-11T06:48:07.767Z,82.33
2018-10-11T06:50:36.933Z,82.19
2018-10-11T06:53:07.056Z,82.30
2018-10-11T06:55:35.935Z,82.15
2018-10-11T06:58:06.610Z,81.69
2018-10-11T07:00:36.773Z,82.01
2018-10-11T07:03:07.024Z,82.18
2018-10-11T07:05:37.025Z,82.43
2018-10-11T07:08:05.770Z,82.02
2018-10-11T07:10:35.076Z,82.23
2018-10-11T07:13:04.509Z,82.64
2018-10-11T07:15:34.487Z,83.22
2018-10-11T07:18:05.077Z,83.10
2018-10-11T07:20:34.634Z,83.60
2018-10-11T07:23:05.418Z,83.29
2018-10-11T07:25:34.620Z,83.32
2018-10-11T07:28:03.441Z,83.47
2018-10-11T07:30:33.079Z,83.15
2018-10-11T07:33:02.825Z,83.10
2018-10-11T07:35:32.815Z,82.93
2018-10-11T07:38:02.553Z,83.12
2018-10-11T07:40:31.761Z,82.37
2018-10-11T07:43:00.453Z,81.70
2018-10-11T07:45:30.260Z,80.86
2018-10-11T07:48:00.234Z,80.38
2018-10-11T07:50:28.807Z,79.28
2018-10-11T07:52:57.322Z,79.17
2018-10-11T07:55:26.065Z,78.46
2018-10-11T07:57:54.910Z,77.24
2018-10-11T08:00:25.892Z,74.32
2018-10-11T08:02:54.436Z,70.25
2018-10-11T08:05:24.616Z,69.19
2018-10-11T08:07:54.024Z,68.81
2018-10-11T08:10:23.876Z,68.37
2018-10-11T08:12:53.770Z,67.18
2018-10-11T08:15:23.139Z,66.57
2018-10-11T08:17:52.304Z,65.18
2018-10-11T08:20:22.114Z,65.38
2018-10-11T08:22:51.529Z,64.62
2018-10-11T08:25:21.351Z,64.70
2018-10-11T08:27:51.610Z,63.84
2018-10-11T08:30:21.250Z,63.51
2018-10-11T08:32:50.946Z,62.40
2018-10-11T08:35:21.296Z,62.67
2018-10-11T08:37:54.074Z,62.32
2018-10-11T08:40:24.547Z,62.41
2018-10-11T08:42:54.937Z,62.27
2018-10-11T08:45:24.437Z,60.68
2018-10-11T08:47:53.406Z,61.42
2018-10-11T08:50:23.245Z,60.73
2018-10-11T08:52:51.976Z,60.54
2018-10-11T08:55:20.804Z,60.62
2018-10-11T08:57:50.431Z,59.68
2018-10-11T09:00:20.432Z,59.62
2018-10-11T09:02:50.438Z,59.90
2018-10-11T09:05:20.752Z,60.09
2018-10-11T09:07:49.777Z,60.01
2018-10-11T09:10:19.247Z,60.25
2018-10-11T09:12:49.983Z,61.10
2018-10-11T09:15:19.558Z,60.99
2018-10-11T09:17:48.610Z,60.04
2018-10-11T09:20:17.825Z,59.04
2018-10-11T09:22:46.991Z,59.35
2018-10-11T09:25:16.649Z,59.39
2018-10-11T09:27:46.085Z,57.29
2018-10-11T09:30:16.604Z,57.09
2018-10-11T09:32:45.934Z,56.45
2018-10-11T09:35:14.865Z,56.15
2018-10-11T09:37:44.818Z,56.03
2018-10-11T09:40:14.437Z,56.69
2018-10-11T09:42:43.113Z,55.51
2018-10-11T09:45:12.374Z,55.37
2018-10-11T09:47:41.675Z,54.07
2018-10-11T09:50:10.599Z,53.67
2018-10-11T09:52:40.846Z,54.34
2018-10-11T09:55:10.907Z,52.96
2018-10-11T09:57:41.123Z,54.93
2018-10-11T10:00:16.116Z,55.83
2018-10-11T10:02:45.141Z,56.81
2018-10-11T10:05:14.447Z,55.05
2018-10-11T10:07:44.010Z,53.01
2018-10-11T10:10:14.191Z,52.20
2018-10-11T10:12:43.283Z,51.41
2018-10-11T10:15:12.642Z,52.89
2018-10-11T10:17:42.917Z,52.34
2018-10-11T10:20:12.368Z,50.62
2018-10-11T10:22:41.667Z,52.18
2018-10-11T10:25:11.041Z,50.30
2018-10-11T10:27:40.308Z,50.38
2018-10-11T10:30:15.185Z,49.01
2018-10-11T10:32:44.412Z,48.96
2018-10-11T10:35:13.222Z,48.64
2018-10-11T10:37:42.921Z,51.52
2018-10-11T10:40:12.240Z,51.64
2018-10-11T10:42:42.409Z,51.21
2018-10-11T10:45:11.746Z,48.91
2018-10-11T10:47:40.780Z,47.97
2018-10-11T10:50:09.989Z,48.02
2018-10-11T10:52:38.927Z,46.56
2018-10-11T10:55:08.218Z,45.62
2018-10-11T10:57:37.566Z,45.61
2018-10-11T11:00:06.616Z,46.05
2018-10-11T11:02:36.187Z,44.42
2018-10-11T11:05:06.540Z,45.50
2018-10-11T11:07:36.654Z,45.27
2018-10-11T11:10:05.946Z,45.24
2018-10-11T11:12:35.234Z,46.63
2018-10-11T11:15:04.825Z,48.32
2018-10-11T11:17:33.772Z,46.86
2018-10-11T11:20:02.881Z,46.17
2018-10-11T11:22:31.662Z,46.55
2018-10-11T11:25:01.227Z,50.24
2018-10-11T11:27:30.398Z,48.27
2018-10-11T11:29:59.968Z,47.06
2018-10-11T11:32:28.812Z,45.77
2018-10-11T11:34:58.096Z,46.51
2018-10-11T11:37:27.048Z,45.58
2018-10-11T11:39:57.199Z,44.08
2018-10-11T11:42:26.924Z,42.89
2018-10-11T11:44:55.836Z,42.99
2018-10-11T11:47:24.815Z,43.34
2018-10-11T11:49:55.033Z,42.43
2018-10-11T11:52:25.159Z,41.67
2018-10-11T11:54:53.942Z,41.87
2018-10-11T11:57:22.903Z,42.34
2018-10-11T11:59:52.610Z,45.69
2018-10-11T12:02:22.352Z,44.23
2018-10-11T12:04:52.271Z,43.56
2018-10-11T12:07:20.992Z,43.45
2018-10-11T12:09:50.616Z,43.26
2018-10-11T12:12:33.228Z,41.99
2018-10-11T12:15:03.004Z,41.35
2018-10-11T12:17:32.436Z,40.80
2018-10-11T12:20:02.426Z,41.04
2018-10-11T12:22:31.936Z,40.62
2018-10-11T12:25:02.121Z,40.38
2018-10-11T12:27:31.803Z,40.27
2018-10-11T12:30:02.294Z,39.91
2018-10-11T12:32:31.859Z,39.44
2018-10-11T12:35:02.127Z,40.12
2018-10-11T12:37:31.635Z,39.02
2018-10-11T12:40:01.730Z,40.27
2018-10-11T12:42:32.206Z,41.70
2018-10-11T12:45:01.967Z,42.30
2018-10-11T12:47:32.014Z,41.38
2018-10-11T12:50:00.924Z,43.27
2018-10-11T12:52:31.663Z,41.79
2018-10-11T12:55:00.953Z,43.11
2018-10-11T12:57:29.904Z,43.09
2018-10-11T12:59:59.930Z,42.16
2018-10-11T13:02:29.529Z,41.57
2018-10-11T13:04:58.961Z,40.13
2018-10-11T13:07:28.986Z,39.80
2018-10-11T13:09:58.270Z,39.47
2018-10-11T13:12:28.122Z,40.04
2018-10-11T13:14:57.396Z,42.58
2018-10-11T13:17:26.622Z,42.65
2018-10-11T13:19:56.775Z,42.50
2018-10-11T13:22:27.741Z,43.00
2018-10-11T13:24:57.147Z,42.77
2018-10-11T13:27:26.516Z,40.14
2018-10-11T13:29:56.029Z,38.77
2018-10-11T13:32:26.258Z,39.65
2018-10-11T13:34:55.475Z,38.78
2018-10-11T13:37:24.946Z,38.20
2018-10-11T13:39:57.690Z,37.55
2018-10-11T13:42:23.686Z,39.83
2018-10-11T13:44:52.172Z,40.73
2018-10-11T13:47:20.946Z,39.53
2018-10-11T13:49:51.322Z,39.17
2018-10-11T13:52:22.622Z,36.36
2018-10-11T13:54:51.637Z,38.16
2018-10-11T13:57:25.943Z,35.78
2018-10-11T13:59:51.523Z,35.54
2018-10-11T14:02:22.542Z,36.53
2018-10-11T14:04:51.768Z,37.79
2018-10-11T14:07:21.889Z,36.12
2018-10-11T14:09:51.163Z,36.08
2018-10-11T14:12:20.289Z,38.37
2018-10-11T14:14:49.096Z,36.88
2018-10-11T14:17:19.079Z,38.36
2018-10-11T14:19:49.920Z,38.83
2018-10-11T14:22:19.655Z,39.95
2018-10-11T14:24:50.655Z,39.42
2018-10-11T14:27:20.384Z,39.83
2018-10-11T14:29:49.799Z,40.67
2018-10-11T14:32:19.307Z,39.35
2018-10-11T14:34:49.640Z,40.89
2018-10-11T14:37:19.426Z,42.29
2018-10-11T14:39:49.309Z,43.23
2018-10-11T14:42:18.371Z,43.65
2018-10-11T14:44:48.290Z,43.42
2018-10-11T14:47:18.311Z,43.69
2018-10-11T14:49:47.265Z,42.25
2018-10-11T14:52:16.445Z,40.54
2018-10-11T14:54:46.836Z,41.97
2018-10-11T14:57:16.832Z,40.50
2018-10-11T14:59:46.733Z,42.99
2018-10-11T15:02:15.666Z,42.21
2018-10-11T15:04:45.798Z,42.30
2018-10-11T15:07:15.029Z,42.45
2018-10-11T15:09:44.256Z,44.15
2018-10-11T15:12:14.759Z,43.82
2018-10-11T15:14:45.096Z,43.63
2018-10-11T15:17:13.847Z,44.36
2018-10-11T15:19:43.410Z,43.87
2018-10-11T15:22:12.629Z,44.32
2018-10-11T15:24:41.700Z,43.50
2018-10-11T15:27:10.511Z,43.39
2018-10-11T15:29:39.964Z,43.50
2018-10-11T15:32:10.560Z,44.38
2018-10-11T15:34:39.896Z,44.55
2018-10-11T15:37:08.951Z,45.16
2018-10-11T15:39:38.097Z,45.12
2018-10-11T15:42:07.108Z,45.47
2018-10-11T15:44:36.213Z,45.71
2018-10-11T15:47:05.730Z,45.36
2018-10-11T15:49:35.824Z,45.93
2018-10-11T15:52:05.744Z,45.93
2018-10-11T15:54:35.255Z,45.95
2018-10-11T15:57:05.121Z,46.79
2018-10-11T15:59:34.503Z,46.46
2018-10-11T16:02:03.651Z,46.66
2018-10-11T16:04:33.245Z,46.94
2018-10-11T16:07:04.065Z,47.29
2018-10-11T16:09:33.055Z,46.77
2018-10-11T16:12:02.642Z,46.93
2018-10-11T16:14:33.501Z,47.31
2018-10-11T16:17:02.872Z,47.43
2018-10-11T16:19:33.007Z,47.83
2018-10-11T16:22:02.169Z,48.10
2018-10-11T16:24:30.636Z,48.87
2018-10-11T16:26:59.306Z,49.00
2018-10-11T16:29:29.255Z,49.14
2018-10-11T16:31:58.528Z,49.99
2018-10-11T16:34:28.102Z,50.68
2018-10-11T16:36:57.617Z,50.83
2018-10-11T16:39:26.667Z,51.41
2018-10-11T16:41:56.723Z,51.21
2018-10-11T16:44:25.852Z,51.73
2018-10-11T16:46:55.266Z,51.84
2018-10-11T16:49:25.307Z,52.14
2018-10-11T16:51:53.760Z,52.18
2018-10-11T16:54:22.664Z,52.19
2018-10-11T16:56:51.590Z,52.27
2018-10-11T16:59:20.781Z,52.77
2018-10-11T17:01:50.336Z,52.93
2018-10-11T17:04:19.625Z,52.63
2018-10-11T17:06:49.242Z,52.93
2018-10-11T17:09:18.559Z,52.52
2018-10-11T17:11:47.394Z,52.65
2018-10-11T17:14:16.823Z,52.42
2018-10-11T17:16:46.690Z,52.50
2018-10-11T17:19:15.879Z,53.57
2018-10-11T17:21:45.704Z,54.17
2018-10-11T17:24:16.096Z,53.94
2018-10-11T17:26:45.817Z,53.97
2018-10-11T17:29:15.334Z,53.87
2018-10-11T17:31:44.369Z,53.84
2018-10-11T17:34:14.741Z,53.90
2018-10-11T17:36:44.977Z,54.72
2018-10-11T17:39:14.256Z,54.37
2018-10-11T17:41:43.877Z,55.33
2018-10-11T17:44:14.899Z,56.43
2018-10-11T17:46:44.195Z,56.55
2018-10-11T17:49:13.571Z,56.37
2018-10-11T17:51:42.767Z,55.76
2018-10-11T17:54:11.892Z,56.54
2018-10-11T17:56:42.400Z,57.56
2018-10-11T17:59:12.141Z,56.94
2018-10-11T18:01:41.237Z,56.57
2018-10-11T18:04:11.225Z,57.22
2018-10-11T18:06:40.161Z,56.78
2018-10-11T18:09:11.838Z,57.16
2018-10-11T18:11:41.077Z,57.04
2018-10-11T18:14:12.243Z,56.77
2018-10-11T18:16:42.054Z,57.04
2018-10-11T18:19:10.758Z,57.23
2018-10-11T18:21:39.860Z,57.43
2018-10-11T18:24:09.214Z,57.69
2018-10-11T18:26:38.817Z,57.85
2018-10-11T18:29:07.317Z,58.63
2018-10-11T18:31:36.437Z,58.93
2018-10-11T18:34:05.261Z,58.53
2018-10-11T18:36:34.673Z,58.85
2018-10-11T18:39:03.940Z,58.99
2018-10-11T18:41:33.510Z,59.51
2018-10-11T18:44:03.784Z,59.74
2018-10-11T18:46:32.829Z,60.33
2018-10-11T18:49:01.696Z,60.76
2018-10-11T18:51:32.423Z,61.42
2018-10-11T18:54:02.644Z,61.28
2018-10-11T18:56:32.276Z,61.30
2018-10-11T18:59:01.956Z,62.16
2018-10-11T19:01:32.094Z,63.10
2018-10-11T19:04:01.409Z,62.36
2018-10-11T19:06:30.904Z,62.59
2018-10-11T19:08:59.982Z,61.94
2018-10-11T19:11:28.802Z,61.92
2018-10-11T19:13:58.626Z,62.03
2018-10-11T19:16:28.232Z,62.32
2018-10-11T19:18:57.073Z,62.64
2018-10-11T19:21:26.262Z,62.88
2018-10-11T19:23:56.802Z,62.88
2018-10-11T19:26:25.767Z,62.82
2018-10-11T19:28:55.202Z,62.36
2018-10-11T19:31:24.697Z,61.95
2018-10-11T19:33:53.600Z,62.17
2018-10-11T19:36:22.430Z,62.10
2018-10-11T19:38:51.575Z,62.38
2018-10-11T19:41:20.521Z,62.15
2018-10-11T19:43:49.962Z,62.09
2018-10-11T19:46:19.058Z,62.31
2018-10-11T19:48:48.134Z,62.51
2018-10-11T19:51:18.288Z,62.29
2018-10-11T19:53:48.339Z,62.55
2018-10-11T19:56:17.716Z,62.73
2018-10-11T19:58:46.910Z,62.97
2018-10-11T20:01:16.354Z,63.15
2018-10-11T20:03:46.190Z,63.38
2018-10-11T20:06:17.118Z,62.67
2018-10-11T20:08:46.097Z,62.95
2018-10-11T20:11:15.340Z,63.52
2018-10-11T20:13:44.851Z,63.78
2018-10-11T20:16:14.508Z,63.53
2018-10-11T20:18:44.119Z,63.54
2018-10-11T20:21:13.642Z,63.46
2018-10-11T20:23:42.116Z,62.04
2018-10-11T20:26:11.217Z,62.38
2018-10-11T20:28:41.975Z,64.74
2018-10-11T20:31:11.065Z,65.25
2018-10-11T20:33:41.594Z,65.08
2018-10-11T20:36:11.288Z,65.31
2018-10-11T20:38:40.353Z,64.27
2018-10-11T20:41:09.464Z,64.82
2018-10-11T20:43:39.755Z,64.37
2018-10-11T20:46:08.967Z,63.95
2018-10-11T20:48:38.642Z,63.43
2018-10-11T20:51:07.542Z,63.01
2018-10-11T20:53:36.693Z,62.82
2018-10-11T20:56:05.966Z,62.37
2018-10-11T20:58:34.866Z,62.30
2018-10-11T21:01:04.239Z,63.94
2018-10-11T21:03:33.460Z,64.31
2018-10-11T21:06:02.529Z,64.76
2018-10-11T21:08:32.230Z,64.92
2018-10-11T21:11:01.846Z,64.83
2018-10-11T21:13:31.782Z,65.24
2018-10-11T21:16:01.293Z,65.14
2018-10-11T21:18:30.693Z,65.19
2018-10-11T21:21:00.680Z,64.42
2018-10-11T21:23:30.865Z,64.57
2018-10-11T21:26:00.572Z,64.87
2018-10-11T21:28:30.307Z,65.95
2018-10-11T21:30:59.992Z,66.20
2018-10-11T21:33:29.341Z,66.37
2018-10-11T21:35:58.888Z,66.80
2018-10-11T21:38:28.662Z,66.54
2018-10-11T21:40:57.712Z,66.33
2018-10-11T21:43:27.103Z,67.19
2018-10-11T21:45:56.900Z,67.32
2018-10-11T21:48:26.672Z,66.56
2018-10-11T21:50:55.998Z,66.47
2018-10-11T21:53:24.708Z,66.88
2018-10-11T21:55:53.525Z,66.15
2018-10-11T21:58:23.697Z,66.10
2018-10-11T22:00:59.128Z,66.89
2018-10-11T22:03:29.118Z,66.87
2018-10-11T22:05:57.883Z,67.69
2018-10-11T22:08:27.401Z,68.00
2018-10-11T22:10:57.421Z,67.20
2018-10-11T22:13:26.747Z,65.78
2018-10-11T22:15:56.297Z,65.76
2018-10-11T22:18:25.833Z,66.02
2018-10-11T22:20:55.062Z,65.87
2018-10-11T22:23:24.893Z,65.52
2018-10-11T22:25:54.049Z,66.68
2018-10-11T22:28:22.533Z,67.55
2018-10-11T22:30:51.310Z,68.06
2018-10-11T22:33:20.656Z,68.62
2018-10-11T22:35:49.876Z,68.68
2018-10-11T22:38:18.964Z,68.00
2018-10-11T22:40:47.989Z,68.27
2018-10-11T22:43:17.038Z,68.14
2018-10-11T22:45:46.629Z,68.12
2018-10-11T22:48:16.052Z,67.95
2018-10-11T22:50:45.918Z,67.95
2018-10-11T22:53:14.725Z,67.81
2018-10-11T22:55:44.617Z,67.15
2018-10-11T22:58:14.289Z,68.63
2018-10-11T23:00:43.105Z,68.52
2018-10-11T23:03:12.706Z,69.00
2018-10-11T23:05:41.452Z,69.12
2018-10-11T23:08:10.657Z,69.26
2018-10-11T23:10:39.760Z,69.33
2018-10-11T23:13:09.492Z,69.63
2018-10-11T23:15:38.683Z,70.19
2018-10-11T23:18:07.904Z,70.06
2018-10-11T23:20:37.067Z,69.61
2018-10-11T23:23:07.416Z,69.15
2018-10-11T23:25:37.013Z,69.05
2018-10-11T23:28:05.975Z,68.83
2018-10-11T23:30:35.132Z,68.74
2018-10-11T23:33:05.053Z,68.86
2018-10-11T23:35:35.435Z,69.23
2018-10-11T23:38:04.550Z,68.00
2018-10-11T23:40:33.965Z,66.71
2018-10-11T23:43:04.064Z,66.71
2018-10-11T23:45:33.858Z,67.34
2018-10-11T23:48:02.669Z,67.27
2018-10-11T23:50:33.191Z,68.51
2018-10-11T23:53:02.246Z,69.97
2018-10-11T23:55:32.963Z,70.14
2018-10-11T23:58:03.113Z,67.69
